Time;durP1;ratioP1;P1;durP2;ratioP2;P2;SDS_P1;SDS_P2;PMS_P1;PMS_P2;Temp;Humidity;BMP_temperature;BMP_pressure;BME280_temperature;BME280_humidity;BME280_pressure;Samples;Min_cycle;Max_cycle;Signal;HPM_P1;HPM_P2
2022/11/05 00:17:09;;;;;;;6.82;3.97;;;;;;;9.55;94.42;99141.06;4420202;32;33472;-76
2022/11/05 00:19:38;;;;;;;7.43;4.47;;;;;;;9.43;95.65;99135.44;4439321;32;33962;-75
2022/11/05 00:25:13;;;;;;;6.95;3.97;;;;;;;9.34;96.32;99127.31;4443713;32;33710;-76
2022/11/05 00:27:45;;;;;;;7.87;4.53;;;;;;;9.29;96.06;99123.66;4443629;32;34257;-73
2022/11/05 00:30:21;;;;;;;8.57;5.18;;;;;;;9.08;96.97;99126.28;4423970;32;32917;-75
2022/11/05 00:32:51;;;;;;;7.07;5.07;;;;;;;9.22;96.89;99133.75;4446596;32;34036;-76
2022/11/05 00:35:21;;;;;;;9.73;5.35;;;;;;;9.36;95.88;99138.59;4421767;32;34441;-75
2022/11/05 00:37:52;;;;;;;8.75;4.90;;;;;;;9.11;96.78;99140.19;4427875;32;33728;-74
2022/11/05 00:40:21;;;;;;;8.15;5.32;;;;;;;9.22;96.74;99145.81;4425460;32;33412;-74
2022/11/05 00:45:38;;;;;;;7.75;4.70;;;;;;;9.29;95.87;99145.25;4426685;32;34136;-74
2022/11/05 00:50:54;;;;;;;7.00;4.68;;;;;;;9.41;94.86;99144.84;4437452;32;33956;-76
2022/11/05 00:53:23;;;;;;;8.48;4.55;;;;;;;9.18;96.16;99137.03;4428060;32;34542;-75
2022/11/05 00:55:52;;;;;;;7.50;4.57;;;;;;;9.25;95.74;99144.22;4437734;32;34793;-74
2022/11/05 00:58:22;;;;;;;8.52;4.82;;;;;;;9.42;94.92;99137.09;4422631;32;32472;-76
2022/11/05 01:00:54;;;;;;;6.87;3.70;;;;;;;9.43;94.40;99138.88;4419215;32;33876;-75
2022/11/05 01:03:31;;;;;;;7.35;4.57;;;;;;;9.39;93.91;99136.12;4417714;32;33574;-75
2022/11/05 01:06:11;;;;;;;7.03;4.50;;;;;;;9.36;94.73;99146.34;4431400;32;34165;-77
2022/11/05 01:08:42;;;;;;;7.37;3.97;;;;;;;9.00;95.86;99144.06;4445787;32;33245;-74
2022/11/05 01:11:40;;;;;;;7.57;4.00;;;;;;;9.22;95.24;99153.56;4443742;32;34554;-76
2022/11/05 01:14:11;;;;;;;6.47;3.90;;;;;;;8.65;100.00;99153.81;4437564;32;33624;-75
2022/11/05 01:16:39;;;;;;;8.15;4.05;;;;;;;9.37;95.10;99153.28;4427889;32;34187;-74
2022/11/05 01:19:09;;;;;;;8.70;5.00;;;;;;;8.93;97.24;99160.16;4431788;32;34236;-76
2022/11/05 01:21:37;;;;;;;7.60;4.65;;;;;;;8.63;98.95;99150.28;4437511;32;33518;-74
2022/11/05 01:24:06;;;;;;;8.15;5.43;;;;;;;8.93;98.65;99160.16;4432302;32;34670;-77
2022/11/05 01:26:35;;;;;;;6.32;3.83;;;;;;;8.96;97.46;99155.09;4446897;32;34653;-76
2022/11/05 01:29:02;;;;;;;8.90;5.10;;;;;;;9.03;95.88;99157.97;4446127;32;33116;-77
2022/11/05 01:31:32;;;;;;;7.57;3.92;;;;;;;9.16;96.48;99153.31;4436900;32;33886;-75
2022/11/05 01:34:02;;;;;;;7.80;5.05;;;;;;;9.17;95.87;99147.31;4426586;32;34055;-73
2022/11/05 01:36:32;;;;;;;8.95;4.68;;;;;;;9.06;96.70;99146.91;4449085;32;34229;-77
2022/11/05 01:39:02;;;;;;;8.02;4.62;;;;;;;9.01;96.82;99144.12;4447381;32;35977;-75
2022/11/05 01:41:33;;;;;;;9.80;5.93;;;;;;;8.82;97.83;99132.16;4440019;32;33173;-75
2022/11/05 01:44:02;;;;;;;8.57;6.30;;;;;;;8.50;99.54;99137.69;4441655;32;33398;-78
2022/11/05 01:46:42;;;;;;;9.13;5.60;;;;;;;8.84;98.53;99161.50;4441029;32;34014;-76
2022/11/05 01:49:21;;;;;;;10.73;5.28;;;;;;;8.57;98.70;99165.53;4439855;32;33499;-75
2022/11/05 01:51:50;;;;;;;10.93;6.25;;;;;;;8.84;98.67;99177.00;4432224;32;34409;-77
2022/11/05 01:54:22;;;;;;;9.90;5.90;;;;;;;8.35;99.75;99185.22;4441023;32;33439;-75
2022/11/05 01:57:03;;;;;;;10.20;6.35;;;;;;;8.71;100.00;99192.81;4422540;32;34133;-76
2022/11/05 01:59:36;;;;;;;9.02;6.53;;;;;;;8.82;99.00;99183.81;4435421;32;33682;-76
2022/11/05 02:02:06;;;;;;;9.60;6.57;;;;;;;9.03;97.73;99177.78;4430864;32;34506;-75
2022/11/05 02:04:44;;;;;;;9.18;5.53;;;;;;;8.89;98.59;99171.16;4428364;32;34072;-74
2022/11/05 02:07:13;;;;;;;10.45;5.97;;;;;;;8.98;97.37;99168.94;4426857;32;34077;-77
2022/11/05 02:10:00;;;;;;;10.27;7.05;;;;;;;8.90;97.91;99180.66;4431385;32;33382;-74
2022/11/05 02:12:31;;;;;;;11.23;6.18;;;;;;;8.94;97.69;99187.72;4432852;32;33741;-77
2022/11/05 02:15:00;;;;;;;10.77;7.57;;;;;;;8.71;97.98;99179.91;4415730;32;34663;-75
2022/11/05 02:17:58;;;;;;;10.98;7.82;;;;;;;8.79;97.61;99178.53;4431514;32;34332;-76
2022/11/05 02:20:33;;;;;;;12.15;8.13;;;;;;;8.88;97.63;99187.47;4422689;32;32646;-77
2022/11/05 02:23:17;;;;;;;12.30;8.30;;;;;;;8.82;97.44;99190.69;4414909;32;33633;-77
2022/11/05 02:26:13;;;;;;;10.82;7.78;;;;;;;8.63;99.57;99194.19;4434485;32;33786;-74
2022/11/05 02:29:26;;;;;;;10.23;6.53;;;;;;;8.56;99.07;99194.75;4433022;32;33920;-77
2022/11/05 02:32:23;;;;;;;10.35;6.70;;;;;;;8.48;100.00;99183.19;4377722;32;34452;-75
2022/11/05 02:34:58;;;;;;;12.68;7.43;;;;;;;8.53;99.54;99179.13;4434284;32;33893;-76
2022/11/05 02:37:40;;;;;;;;;;;;;;;8.46;99.85;99183.16;4435593;32;33573;-75
2022/11/05 02:40:24;;;;;;;13.15;7.55;;;;;;;8.39;100.00;99181.94;4432551;32;34054;-77
2022/11/05 02:43:04;;;;;;;10.88;7.35;;;;;;;8.33;100.00;99181.69;4426735;32;34397;-78
2022/11/05 02:46:07;;;;;;;11.30;6.95;;;;;;;8.20;100.00;99181.97;4431126;32;34443;-78
2022/11/05 02:48:55;;;;;;;13.82;8.40;;;;;;;8.19;100.00;99188.84;4412043;32;33881;-75
2022/11/05 02:51:34;;;;;;;13.60;8.80;;;;;;;8.23;100.00;99195.88;4416245;32;34739;-77
2022/11/05 02:54:17;;;;;;;11.95;7.65;;;;;;;8.36;100.00;99189.56;4432821;32;34337;-78
2022/11/05 02:56:47;;;;;;;12.82;8.95;;;;;;;8.44;100.00;99190.81;4424883;32;33693;-77
2022/11/05 02:59:17;;;;;;;10.77;6.93;;;;;;;8.59;99.48;99189.69;4439267;32;33991;-77
2022/11/05 03:01:47;;;;;;;13.05;8.05;;;;;;;8.53;99.18;99194.59;4433156;32;34062;-77
2022/11/05 03:04:20;;;;;;;12.77;8.75;;;;;;;8.53;99.16;99198.06;4428096;32;34315;-77
2022/11/05 03:07:15;;;;;;;13.75;7.65;;;;;;;8.50;99.93;99194.47;4418079;32;33303;-76
2022/11/05 03:10:01;;;;;;;12.15;7.95;;;;;;;8.42;100.00;99200.19;4430254;32;32630;-76
2022/11/05 03:12:49;;;;;;;14.43;7.82;;;;;;;8.58;99.45;99194.00;4434018;32;171585;-77
2022/11/05 03:15:37;;;;;;;10.95;7.72;;;;;;;8.44;99.41;99201.16;4432628;32;34273;-77
2022/11/05 03:18:29;;;;;;;11.15;8.23;;;;;;;8.40;99.82;99198.31;4451670;32;33682;-78
2022/11/05 03:21:01;;;;;;;12.13;7.93;;;;;;;8.48;99.36;99211.59;4437197;32;34651;-75
2022/11/05 03:23:44;;;;;;;10.57;7.75;;;;;;;8.36;99.89;99207.63;4435349;32;34068;-76
2022/11/05 03:26:29;;;;;;;12.05;7.80;;;;;;;8.48;99.10;99209.91;4427115;32;33684;-77
2022/11/05 03:29:12;;;;;;;11.15;7.43;;;;;;;8.57;98.56;99212.00;4431752;32;34213;-78
2022/11/05 03:31:42;;;;;;;10.20;7.20;;;;;;;8.57;98.60;99224.91;4424467;32;33177;-76
2022/11/05 03:34:12;;;;;;;11.85;8.35;;;;;;;8.48;98.62;99232.22;4419683;32;33681;-75
2022/11/05 03:36:45;;;;;;;12.60;8.02;;;;;;;8.61;98.03;99224.22;4438649;32;34084;-76
2022/11/05 03:39:19;;;;;;;11.27;7.05;;;;;;;8.57;98.22;99222.31;4432042;32;33488;-76
2022/11/05 03:41:51;;;;;;;10.48;7.03;;;;;;;8.45;98.45;99223.53;4432203;32;32605;-77
2022/11/05 03:44:29;;;;;;;12.00;6.60;;;;;;;8.43;98.68;99214.84;4425445;32;33862;-76
2022/11/05 03:47:05;;;;;;;9.02;6.07;;;;;;;8.39;98.62;99222.38;4432137;32;33654;-76
2022/11/05 03:49:48;;;;;;;10.32;6.28;;;;;;;8.43;98.71;99221.72;4435392;32;33429;-78
2022/11/05 03:52:20;;;;;;;11.27;7.70;;;;;;;8.39;98.33;99233.56;4438721;32;33845;-74
2022/11/05 03:54:50;;;;;;;9.93;6.03;;;;;;;8.54;98.01;99227.38;4422030;32;34620;-76
2022/11/05 03:57:24;;;;;;;10.07;6.18;;;;;;;8.55;97.60;99239.44;4437884;32;32449;-76
2022/11/05 03:59:53;;;;;;;12.20;7.03;;;;;;;8.50;97.57;99246.09;4421232;32;33461;-76
2022/11/05 04:02:25;;;;;;;9.40;6.30;;;;;;;8.52;97.84;99247.94;4430381;32;33511;-75
2022/11/05 04:04:54;;;;;;;10.45;6.60;;;;;;;8.60;96.89;99241.41;4437665;32;32655;-78
2022/11/05 04:18:36;;;;;;;9.93;6.82;;;;;;;8.32;98.06;99220.31;4437026;32;33952;-76
2022/11/05 04:24:08;;;;;;;10.27;6.95;;;;;;;8.31;98.04;99228.91;4435638;32;33984;-79
2022/11/05 04:26:38;;;;;;;10.23;6.32;;;;;;;8.19;97.72;99229.22;4427584;32;36090;-77
2022/11/05 04:31:55;;;;;;;10.45;6.32;;;;;;;8.30;97.83;99228.00;4430457;32;33783;-78
2022/11/05 04:34:25;;;;;;;12.63;6.22;;;;;;;8.18;98.90;99218.00;4436690;32;33515;-77
2022/11/05 04:36:54;;;;;;;9.45;5.70;;;;;;;8.36;97.37;99210.19;4431622;32;34626;-76
2022/11/05 04:39:24;;;;;;;10.45;6.12;;;;;;;8.39;97.25;99200.03;4434679;32;33508;-77
2022/11/05 04:41:53;;;;;;;11.70;6.93;;;;;;;8.28;97.75;99202.13;4434424;32;33776;-77
2022/11/05 04:44:22;;;;;;;9.25;6.15;;;;;;;8.05;97.90;99206.28;4429763;32;33670;-77
2022/11/05 04:46:51;;;;;;;8.82;5.32;;;;;;;8.21;98.10;99212.12;4432638;32;34596;-75
2022/11/05 04:49:22;;;;;;;10.07;5.97;;;;;;;8.19;98.59;99211.16;4430934;32;33588;-76
2022/11/05 04:51:51;;;;;;;10.77;5.15;;;;;;;8.15;98.41;99211.81;4434237;32;33983;-77
2022/11/05 04:54:18;;;;;;;11.40;6.10;;;;;;;8.31;97.77;99219.47;4436565;32;32916;-76
2022/11/05 04:56:47;;;;;;;9.75;5.90;;;;;;;8.30;97.35;99225.41;4439254;32;34687;-76
2022/11/05 04:59:19;;;;;;;12.95;6.15;;;;;;;8.25;97.20;99214.03;4422868;32;33347;-76
2022/11/05 05:01:51;;;;;;;10.53;5.47;;;;;;;8.17;97.67;99215.34;4415546;32;33463;-76
2022/11/05 05:04:21;;;;;;;10.93;5.87;;;;;;;8.08;97.91;99221.88;4418978;32;34639;-77
2022/11/05 05:06:49;;;;;;;9.60;5.15;;;;;;;8.23;97.61;99220.81;4434466;32;34090;-78
2022/11/05 05:09:19;;;;;;;7.95;4.68;;;;;;;8.21;97.09;99214.72;4433716;32;34334;-76
2022/11/05 05:11:48;;;;;;;8.65;4.97;;;;;;;8.21;97.03;99217.28;4426669;32;34296;-77
2022/11/05 05:14:16;;;;;;;8.95;4.80;;;;;;;8.10;96.89;99209.06;4436764;32;31459;-76
2022/11/05 05:16:44;;;;;;;9.15;5.35;;;;;;;8.21;96.36;99214.72;4436718;32;34474;-75
2022/11/05 05:19:14;;;;;;;9.48;5.15;;;;;;;8.31;96.62;99208.25;4436694;32;32523;-75
2022/11/05 05:21:44;;;;;;;7.70;4.55;;;;;;;8.45;95.56;99205.47;4444385;32;34058;-75
2022/11/05 05:24:17;;;;;;;8.68;4.82;;;;;;;8.27;95.46;99222.72;4419066;32;33843;-77
2022/11/05 05:26:48;;;;;;;7.12;4.12;;;;;;;8.32;95.57;99221.19;4436124;32;34916;-75
2022/11/05 05:29:17;;;;;;;9.25;4.03;;;;;;;8.35;95.46;99226.50;4440390;32;32382;-77
2022/11/05 05:31:46;;;;;;;7.40;4.28;;;;;;;8.23;95.35;99236.31;4430743;32;33958;-75
2022/11/05 05:34:13;;;;;;;7.20;3.50;;;;;;;8.25;95.46;99240.69;4434797;32;34549;-78
2022/11/05 05:36:42;;;;;;;6.35;3.40;;;;;;;8.30;94.53;99228.00;4430705;32;34129;-77
2022/11/05 05:39:11;;;;;;;7.00;4.03;;;;;;;8.35;94.74;99242.00;4428041;32;34962;-76
2022/11/05 05:41:40;;;;;;;7.95;3.67;;;;;;;8.21;95.02;99237.94;4435095;32;34759;-78
2022/11/05 05:44:09;;;;;;;5.80;3.00;;;;;;;8.15;95.40;99232.47;4438879;32;33858;-76
2022/11/05 05:46:37;;;;;;;6.28;3.80;;;;;;;8.17;95.45;99241.16;4410379;32;31973;-77
2022/11/05 05:49:09;;;;;;;6.60;3.47;;;;;;;8.50;93.78;99251.25;4410323;32;33849;-78
2022/11/05 05:51:41;;;;;;;7.15;3.80;;;;;;;8.43;93.54;99255.28;4422793;32;33939;-75
2022/11/05 05:54:10;;;;;;;6.62;3.70;;;;;;;8.52;93.09;99254.78;4425705;32;31686;-76
2022/11/05 05:56:44;;;;;;;6.95;3.72;;;;;;;8.40;93.65;99271.47;4413703;32;31731;-75
2022/11/05 05:59:13;;;;;;;6.57;3.70;;;;;;;8.48;93.07;99276.13;4428879;32;33548;-77
2022/11/05 06:01:42;;;;;;;5.32;3.25;;;;;;;8.60;93.11;99279.25;4426901;32;33668;-76
2022/11/05 06:04:11;;;;;;;6.03;3.22;;;;;;;8.28;94.94;99288.97;4427679;32;34831;-75
2022/11/05 06:06:41;;;;;;;6.12;3.53;;;;;;;8.49;93.14;99301.13;4430674;32;34729;-75
2022/11/05 06:09:11;;;;;;;5.97;3.50;;;;;;;8.34;93.08;99312.47;4427068;32;33792;-77
2022/11/05 06:11:40;;;;;;;6.85;3.72;;;;;;;8.49;93.02;99316.63;4427922;32;33765;-76
2022/11/05 06:14:11;;;;;;;5.03;2.85;;;;;;;8.42;92.89;99311.19;4426438;32;33902;-76
2022/11/05 06:16:41;;;;;;;6.30;3.35;;;;;;;8.72;91.86;99315.94;4432070;32;34144;-77
2022/11/05 06:19:09;;;;;;;6.28;3.50;;;;;;;8.67;91.52;99317.41;4439370;32;33390;-75
2022/11/05 06:21:40;;;;;;;5.82;3.58;;;;;;;8.52;92.76;99321.91;4432198;32;33543;-76
2022/11/05 06:24:10;;;;;;;6.20;3.15;;;;;;;8.72;91.91;99335.72;4427817;32;35272;-75
2022/11/05 06:26:42;;;;;;;6.82;3.62;;;;;;;8.52;92.79;99342.53;4425422;32;34185;-76
2022/11/05 06:29:11;;;;;;;6.03;3.70;;;;;;;8.72;91.99;99357.25;4434264;32;33531;-76
2022/11/05 06:31:40;;;;;;;6.25;3.72;;;;;;;8.81;91.33;99338.72;4429255;32;33777;-75
2022/11/05 06:34:09;;;;;;;5.75;3.42;;;;;;;8.75;91.58;99346.16;4427906;32;33231;-75
2022/11/05 06:36:38;;;;;;;5.85;3.45;;;;;;;8.76;91.17;99345.37;4430345;32;33918;-74
2022/11/05 06:39:12;;;;;;;6.07;3.45;;;;;;;8.74;91.41;99337.53;4429471;32;33170;-74
2022/11/05 06:41:46;;;;;;;6.53;3.62;;;;;;;8.59;91.89;99349.75;4434670;32;33886;-75
2022/11/05 06:44:37;;;;;;;6.53;3.55;;;;;;;8.69;92.60;99351.94;4430284;32;33781;-74
2022/11/05 06:47:08;;;;;;;5.65;3.58;;;;;;;8.77;91.62;99350.59;4429231;32;33739;-76
2022/11/05 06:49:39;;;;;;;7.30;3.30;;;;;;;8.89;91.62;99351.97;4420963;32;32274;-76
2022/11/05 06:52:09;;;;;;;6.93;3.67;;;;;;;8.93;91.33;99356.44;4431799;32;33872;-74
2022/11/05 06:54:37;;;;;;;6.30;3.65;;;;;;;8.88;91.33;99357.94;4432393;32;33704;-74
2022/11/05 06:57:08;;;;;;;6.32;3.53;;;;;;;8.97;90.83;99368.69;4424010;32;34055;-76
2022/11/05 06:59:40;;;;;;;8.10;3.40;;;;;;;8.82;91.06;99369.75;4425673;32;34292;-76
2022/11/05 07:02:12;;;;;;;5.33;2.33;;;;;;;9.01;90.76;99378.31;4416399;32;33713;-73
2022/11/05 07:04:41;;;;;;;4.70;2.78;;;;;;;8.91;89.50;99373.59;4429935;32;33092;-76
2022/11/05 07:07:09;;;;;;;4.72;2.60;;;;;;;9.00;89.81;99368.78;4428243;32;33384;-75
2022/11/05 07:09:41;;;;;;;5.50;3.10;;;;;;;9.12;90.00;99371.94;4431709;32;33516;-77
2022/11/05 07:12:10;;;;;;;5.12;3.05;;;;;;;9.05;89.85;99373.34;4424414;32;34338;-75
2022/11/05 07:14:39;;;;;;;4.95;2.70;;;;;;;9.09;89.40;99374.38;4424706;32;34687;-75
2022/11/05 07:17:07;;;;;;;4.95;2.30;;;;;;;8.90;90.36;99380.41;4428233;32;34001;-76
2022/11/05 07:19:37;;;;;;;5.20;3.17;;;;;;;9.05;89.33;99377.66;4422797;32;33408;-75
2022/11/05 07:22:06;;;;;;;6.22;3.00;;;;;;;9.02;89.69;99377.50;4426436;32;34509;-74
2022/11/05 07:24:37;;;;;;;5.10;2.70;;;;;;;9.08;89.69;99388.12;4427113;32;34736;-74
2022/11/05 07:27:10;;;;;;;6.18;2.72;;;;;;;9.23;88.54;99378.47;4430123;32;33277;-76
2022/11/05 07:29:39;;;;;;;4.32;2.53;;;;;;;9.08;88.89;99387.22;4428873;32;33756;-76
2022/11/05 07:32:08;;;;;;;4.82;2.53;;;;;;;9.06;89.32;99379.44;4426617;32;34249;-75
2022/11/05 07:34:36;;;;;;;3.85;1.98;;;;;;;9.08;88.76;99385.53;4422442;32;34525;-75
2022/11/05 07:37:07;;;;;;;4.62;2.42;;;;;;;9.21;87.87;99384.34;4432521;32;34045;-75
2022/11/05 07:39:36;;;;;;;5.28;2.20;;;;;;;9.12;88.34;99384.84;4431492;32;34372;-75
2022/11/05 07:42:04;;;;;;;3.40;1.80;;;;;;;9.23;87.75;99378.47;4430081;32;32221;-75
2022/11/05 07:44:33;;;;;;;5.15;2.35;;;;;;;9.16;87.17;99379.00;4430869;32;33338;-76
2022/11/05 07:47:03;;;;;;;4.65;2.30;;;;;;;9.33;87.95;99384.00;4437986;32;33822;-76
2022/11/05 07:49:36;;;;;;;4.05;2.20;;;;;;;9.41;87.69;99380.06;4432138;32;34116;-73
2022/11/05 07:52:05;;;;;;;4.93;2.77;;;;;;;9.49;87.83;99390.72;4429233;32;33925;-75
2022/11/05 07:54:34;;;;;;;3.62;2.10;;;;;;;9.75;85.86;99384.91;4430492;32;33866;-76
2022/11/05 07:57:04;;;;;;;4.95;2.30;;;;;;;9.44;86.06;99377.59;4427598;32;34789;-75
2022/11/05 07:59:32;;;;;;;5.80;2.90;;;;;;;9.51;86.82;99381.34;4428363;32;33523;-77
2022/11/05 08:02:02;;;;;;;8.15;2.72;;;;;;;9.59;87.16;99382.53;4425333;32;34770;-75
2022/11/05 08:04:39;;;;;;;5.20;2.78;;;;;;;9.87;85.47;99370.72;4432137;32;32949;-75
2022/11/05 08:07:12;;;;;;;3.83;2.00;;;;;;;9.68;85.46;99376.84;4439994;32;34933;-75
2022/11/05 08:09:44;;;;;;;5.80;2.65;;;;;;;9.97;84.58;99371.16;4437946;32;33786;-75
2022/11/05 08:12:14;;;;;;;4.07;2.47;;;;;;;10.08;85.66;99362.94;4434127;32;34541;-76
2022/11/05 08:14:44;;;;;;;4.10;2.42;;;;;;;10.00;85.02;99366.09;4440286;32;34681;-76
2022/11/05 08:17:13;;;;;;;4.50;2.40;;;;;;;10.12;82.95;99365.72;4439709;32;33714;-76
2022/11/05 08:19:47;;;;;;;3.85;2.00;;;;;;;10.32;82.48;99363.94;4431872;32;33544;-77
2022/11/05 08:22:17;;;;;;;4.07;1.80;;;;;;;10.06;83.15;99354.25;4428044;32;33883;-76
2022/11/05 08:24:47;;;;;;;4.82;2.45;;;;;;;9.97;84.31;99350.47;4430510;32;34845;-74
2022/11/05 08:27:17;;;;;;;5.05;2.90;;;;;;;10.20;83.36;99353.09;4433394;32;33916;-74
2022/11/05 08:29:46;;;;;;;4.97;2.40;;;;;;;10.10;84.17;99350.94;4439639;32;33459;-75
2022/11/05 08:32:15;;;;;;;5.60;3.20;;;;;;;10.37;82.03;99349.47;4434933;32;33217;-74
2022/11/05 08:34:44;;;;;;;4.65;2.87;;;;;;;10.20;84.25;99355.69;4431543;32;33683;-75
2022/11/05 08:37:14;;;;;;;6.22;2.80;;;;;;;10.47;82.86;99362.75;4439882;32;34622;-75
2022/11/05 08:39:43;;;;;;;4.55;2.85;;;;;;;10.81;81.22;99368.37;4437193;32;34239;-75
2022/11/05 08:42:13;;;;;;;4.32;2.12;;;;;;;10.53;81.65;99365.59;4439566;32;34732;-76
2022/11/05 08:44:42;;;;;;;4.87;2.70;;;;;;;10.46;81.13;99356.69;4440926;32;33728;-75
2022/11/05 08:47:12;;;;;;;6.62;3.20;;;;;;;10.11;82.99;99363.06;4439436;32;34459;-75
2022/11/05 08:49:47;;;;;;;4.97;2.65;;;;;;;10.49;81.37;99359.41;4433012;32;34193;-76
2022/11/05 08:52:16;;;;;;;5.18;3.00;;;;;;;10.63;80.76;99375.47;4439932;32;33126;-76
2022/11/05 08:54:47;;;;;;;7.22;3.37;;;;;;;10.62;80.87;99377.19;4442519;32;33895;-76
2022/11/05 08:57:15;;;;;;;6.35;2.95;;;;;;;10.56;81.23;99374.34;4446233;32;33675;-77
2022/11/05 08:59:44;;;;;;;5.40;2.72;;;;;;;10.36;82.10;99381.34;4437052;32;33334;-75
2022/11/05 09:02:14;;;;;;;4.68;2.75;;;;;;;10.42;81.49;99371.22;4423711;32;33717;-75
2022/11/05 09:04:44;;;;;;;5.53;2.92;;;;;;;10.61;80.81;99388.34;4432763;32;34745;-74
2022/11/05 09:07:13;;;;;;;5.95;3.17;;;;;;;10.42;81.83;99391.94;4429638;32;33231;-76
2022/11/05 09:09:42;;;;;;;4.87;2.92;;;;;;;10.87;80.10;99391.03;4432841;32;33951;-76
2022/11/05 09:12:09;;;;;;;5.50;3.20;;;;;;;11.19;78.59;99394.81;4432660;32;34108;-77
2022/11/05 09:14:41;;;;;;;4.93;2.80;;;;;;;11.18;78.70;99398.25;4436850;32;33504;-76
2022/11/05 09:17:19;;;;;;;5.72;3.10;;;;;;;11.01;78.24;99396.75;4432728;32;34571;-76
2022/11/05 09:19:48;;;;;;;3.22;1.92;;;;;;;10.80;79.17;99404.59;4436473;32;32947;-76
2022/11/05 09:22:17;;;;;;;5.28;2.78;;;;;;;10.70;79.34;99389.53;4437861;32;33892;-75
2022/11/05 09:25:08;;;;;;;5.55;3.37;;;;;;;10.44;80.30;99404.97;4436267;32;33589;-76
2022/11/05 09:27:39;;;;;;;5.75;2.90;;;;;;;10.60;80.66;99407.34;4431005;32;34021;-75
2022/11/05 09:30:19;;;;;;;4.90;3.03;;;;;;;11.06;78.47;99413.31;4445151;32;34141;-76
2022/11/05 09:32:49;;;;;;;5.40;3.05;;;;;;;10.70;80.61;99413.75;4435485;32;33966;-75
2022/11/05 09:35:18;;;;;;;5.45;3.22;;;;;;;10.91;79.47;99410.16;4437335;32;33948;-75
2022/11/05 09:37:49;;;;;;;6.85;3.75;;;;;;;10.78;79.54;99420.09;4439547;32;32913;-76
2022/11/05 09:40:18;;;;;;;6.20;3.40;;;;;;;10.83;79.73;99409.88;4438372;32;33884;-74
2022/11/05 09:42:51;;;;;;;5.82;3.87;;;;;;;10.57;80.12;99411.50;4434428;32;33690;-74
2022/11/05 09:45:24;;;;;;;6.65;3.83;;;;;;;10.61;81.50;99405.63;4421860;32;34129;-76
2022/11/05 09:48:00;;;;;;;6.68;4.12;;;;;;;10.86;79.50;99396.19;4434868;32;34653;-74
2022/11/05 09:50:36;;;;;;;6.12;3.78;;;;;;;10.98;79.32;99394.03;4440859;32;34319;-75
2022/11/05 09:53:06;;;;;;;7.50;3.67;;;;;;;10.77;80.52;99397.59;4429394;32;33820;-73
2022/11/05 09:55:40;;;;;;;5.78;2.47;;;;;;;10.76;79.87;99393.25;4434828;32;34005;-75
2022/11/05 09:58:31;;;;;;;7.93;4.28;;;;;;;10.64;80.00;99397.94;4428805;32;34190;-76
2022/11/05 10:01:03;;;;;;;5.85;3.55;;;;;;;10.95;79.51;99401.69;4426140;32;34371;-76
2022/11/05 10:03:33;;;;;;;7.18;3.92;;;;;;;11.11;78.83;99401.44;4444755;32;34775;-77
2022/11/05 10:06:07;;;;;;;6.28;3.90;;;;;;;10.91;79.38;99399.81;4430864;32;33905;-75
2022/11/05 10:08:43;;;;;;;6.12;3.67;;;;;;;11.34;79.00;99401.38;4418764;32;34776;-75
2022/11/05 10:11:37;;;;;;;8.02;3.83;;;;;;;11.35;77.51;99398.81;4435396;32;34338;-77
2022/11/05 10:14:22;;;;;;;7.43;4.03;;;;;;;11.17;78.70;99391.28;4419670;32;33754;-74
2022/11/05 10:17:10;;;;;;;9.73;4.40;;;;;;;10.84;80.06;99400.44;4428574;32;33859;-76
2022/11/05 10:19:48;;;;;;;5.93;3.80;;;;;;;11.02;78.80;99395.91;4426997;32;33806;-74
2022/11/05 10:22:19;;;;;;;7.50;4.30;;;;;;;11.14;79.35;99398.94;4427372;32;33337;-76
2022/11/05 10:24:54;;;;;;;4.90;2.65;;;;;;;11.46;77.79;99398.31;4445266;32;32685;-76
2022/11/05 10:27:30;;;;;;;5.40;3.30;;;;;;;11.19;77.00;99376.66;4447070;32;33947;-75
2022/11/05 10:30:01;;;;;;;9.65;4.20;;;;;;;10.91;79.59;99386.84;4438487;32;33837;-76
2022/11/05 10:32:36;;;;;;;5.95;3.42;;;;;;;11.35;78.90;99384.97;4434445;32;34315;-75
2022/11/05 10:35:11;;;;;;;7.75;3.45;;;;;;;11.32;77.76;99379.66;4429122;32;33791;-75
2022/11/05 10:37:41;;;;;;;6.35;3.53;;;;;;;11.40;77.68;99388.63;4437031;32;33662;-75
2022/11/05 10:40:23;;;;;;;8.93;4.03;;;;;;;11.20;78.61;99388.81;4448860;32;34270;-74
2022/11/05 10:43:12;;;;;;;5.55;3.60;;;;;;;11.30;78.65;99383.91;4437701;32;33343;-75
2022/11/05 10:46:07;;;;;;;7.15;4.18;;;;;;;11.09;78.82;99386.66;4432136;32;33709;-76
2022/11/05 10:48:51;;;;;;;7.37;4.00;;;;;;;11.49;78.77;99382.84;4434909;32;33793;-77
2022/11/05 10:51:20;;;;;;;6.72;4.07;;;;;;;11.39;77.70;99384.25;4439564;32;34013;-75
2022/11/05 10:53:54;;;;;;;6.43;3.87;;;;;;;11.53;77.37;99396.00;4439550;32;33604;-76
2022/11/05 10:56:37;;;;;;;6.85;4.25;;;;;;;11.54;77.51;99395.16;4451753;32;33927;-75
2022/11/05 10:59:18;;;;;;;6.12;3.45;;;;;;;11.78;77.21;99402.00;4444691;32;34614;-76
2022/11/05 11:01:46;;;;;;;7.37;3.80;;;;;;;11.68;77.00;99410.31;4429191;32;33904;-75
2022/11/05 11:04:26;;;;;;;6.90;4.15;;;;;;;11.61;78.27;99404.91;4433368;32;32394;-74
2022/11/05 11:06:59;;;;;;;5.37;3.45;;;;;;;11.93;77.34;99407.72;4426906;32;34166;-75
2022/11/05 11:09:34;;;;;;;6.07;4.28;;;;;;;11.99;76.92;99407.03;4446891;32;34008;-74
2022/11/05 11:12:20;;;;;;;6.47;3.60;;;;;;;11.89;77.00;99399.75;4425233;32;32605;-76
2022/11/05 11:15:04;;;;;;;6.03;3.65;;;;;;;11.71;76.86;99400.03;4432902;32;33365;-76
2022/11/05 11:17:34;;;;;;;7.07;3.92;;;;;;;11.61;76.44;99378.97;4426647;32;34427;-75
2022/11/05 11:20:19;;;;;;;7.37;4.15;;;;;;;11.59;78.34;99396.19;4448608;32;33725;-75
2022/11/05 11:23:02;;;;;;;6.15;3.67;;;;;;;11.91;77.53;99391.22;4446222;32;34088;-75
2022/11/05 11:25:49;;;;;;;5.87;3.80;;;;;;;11.92;77.37;99395.59;4447575;32;34117;-75
2022/11/05 11:28:26;;;;;;;5.72;3.65;;;;;;;11.92;76.54;99387.81;4424392;32;33754;-76
2022/11/05 11:31:03;;;;;;;7.85;4.32;;;;;;;11.94;76.76;99395.66;4424303;32;33399;-76
2022/11/05 11:33:34;;;;;;;6.03;3.05;;;;;;;11.88;77.59;99406.69;4411253;32;33749;-75
2022/11/05 11:36:03;;;;;;;8.25;4.30;;;;;;;11.85;77.13;99403.97;4431417;32;34333;-75
2022/11/05 11:38:33;;;;;;;5.65;3.25;;;;;;;12.00;76.33;99396.72;4438812;32;34652;-75
2022/11/05 11:41:13;;;;;;;7.35;3.80;;;;;;;11.80;76.55;99379.56;4432014;32;33948;-74
2022/11/05 11:43:43;;;;;;;5.72;3.75;;;;;;;11.73;77.71;99383.69;4436877;32;34166;-73
2022/11/05 11:46:17;;;;;;;5.97;3.85;;;;;;;11.79;77.71;99394.25;4436334;32;34129;-74
2022/11/05 11:48:49;;;;;;;7.15;3.47;;;;;;;11.73;77.99;99388.88;4436754;32;34778;-77
2022/11/05 11:51:39;;;;;;;4.82;2.75;;;;;;;11.67;77.88;99380.03;4452507;32;34512;-74
2022/11/05 11:54:20;;;;;;;5.82;3.70;;;;;;;11.45;78.17;99381.84;4417435;32;34070;-75
2022/11/05 11:56:57;;;;;;;5.95;3.35;;;;;;;11.58;79.27;99376.25;4438253;32;34350;-76
2022/11/05 11:59:30;;;;;;;6.43;3.85;;;;;;;11.57;78.72;99397.88;4415867;32;33916;-76
2022/11/05 12:02:39;;;;;;;6.12;3.45;;;;;;;11.72;78.59;99387.09;4424628;32;35207;-74
2022/11/05 12:05:18;;;;;;;5.85;3.37;;;;;;;11.84;78.27;99391.84;4446038;32;34634;-73
2022/11/05 12:07:56;;;;;;;5.93;3.67;;;;;;;11.91;78.13;99409.38;4434447;32;32559;-75
2022/11/05 12:11:01;;;;;;;5.68;3.67;;;;;;;12.22;77.04;99394.81;4432153;32;33913;-76
2022/11/05 12:13:41;;;;;;;7.45;3.58;;;;;;;12.16;77.10;99399.81;4428370;32;34419;-76
2022/11/05 12:16:40;;;;;;;8.13;3.70;;;;;;;12.26;77.06;99396.66;4430728;32;34723;-75
2022/11/05 12:19:38;;;;;;;6.47;3.80;;;;;;;12.33;76.37;99403.81;4421356;32;33453;-75
2022/11/05 12:22:29;;;;;;;11.63;3.58;;;;;;;12.24;77.61;99413.91;4419708;32;34718;-75
2022/11/05 12:25:21;;;;;;;6.15;3.22;;;;;;;12.42;75.90;99423.09;4429523;32;33797;-75
2022/11/05 12:27:58;;;;;;;5.65;3.50;;;;;;;12.12;76.38;99426.50;4401537;32;33622;-76
2022/11/05 12:30:51;;;;;;;5.05;2.92;;;;;;;12.34;76.99;99426.38;4426318;32;33784;-73
2022/11/05 12:33:42;;;;;;;5.47;3.25;;;;;;;12.54;75.95;99434.78;4407126;32;33326;-75
2022/11/05 12:36:32;;;;;;;6.60;3.28;;;;;;;12.47;76.72;99427.63;4430686;32;33899;-76
2022/11/05 12:39:05;;;;;;;5.43;3.20;;;;;;;12.74;74.89;99430.19;4428686;32;33105;-75
2022/11/05 12:41:48;;;;;;;6.43;2.90;;;;;;;12.66;74.90;99418.69;4432778;32;33652;-75
2022/11/05 12:44:41;;;;;;;8.23;2.50;;;;;;;12.50;75.14;99429.44;4428169;32;33445;-75
2022/11/05 12:47:47;;;;;;;5.62;3.33;;;;;;;12.34;75.79;99431.56;4432660;32;33777;-73
2022/11/05 12:50:27;;;;;;;6.15;3.10;;;;;;;12.23;76.68;99442.41;4383225;32;33943;-77
2022/11/05 12:52:59;;;;;;;4.62;2.67;;;;;;;12.58;75.71;99430.56;4424986;32;33568;-76